• Join FlightAware (Why Join?)
  • Login
  • US Flag 
04:33AM EDT


 

Airport Tracker/Info


-or-


 

Live Flight TrackerFlight Track Log ✈ N30VP ✈ 21-Oct-2013 ✈ KOKV - KAFP

Flight Track Log - Related Links

Times and Time Zones

All times are in EDT time to prevent confusion due to time zone crossing. See the N30VP flight status page for this flight to view local times or setup timezone preferences in your user account.

Time Position Orientation Groundspeed Altitude Reporting Facility
EDT Latitude Longitude Course Direction KTS MPH feet Rate Location/Type
03:27PM 38.4247 -78.7058 208° Southwest 443 510 16,500  Level Washington Center
03:28PM 38.3400 -78.7631 208° Southwest 408 470 17,700 1,740 Climbing Washington Center
03:29PM 38.2594 -78.8100 205° Southwest 352 405 20,000 1,140 Climbing Washington Center
03:30PM 38.1622 -78.8586 201° Southwest 347 399 20,000  Level Washington Center
03:31PM 38.0558 -78.8539 178° South 369 425 20,000  Level Washington Center
03:32PM 37.9436 -78.8383 174° South 386 444 20,000  Level Washington Center
03:33PM 37.8461 -78.8289 176° South 397 457 20,000 360 Level Washington Center
03:34PM 37.7467 -78.8719 199° South 377 434 20,800 1,740 Climbing Washington Center
03:35PM 37.6639 -78.9314 210° Southwest 364 419 23,500 2,520 Climbing Washington Center
03:36PM 37.5828 -78.9908 210° Southwest 353 406 25,900 1,260 Climbing Washington Center
03:37PM 37.4975 -79.0550 211° Southwest 353 406 26,000  Climbing Washington Center
03:38PM 37.3953 -79.1289 210° Southwest 381 438 26,000  Level Washington Center
03:39PM 37.3014 -79.1975 210° Southwest 393 452 26,000  Level Washington Center
03:40PM 37.2056 -79.2608 208° Southwest 393 452 26,000  Level Washington Center
03:41PM 37.1078 -79.3239 207° Southwest 393 452 26,000  Level Washington Center
03:42PM 37.0119 -79.3842 207° Southwest 393 452 26,000  Level Washington Center
03:43PM 36.9247 -79.4372 206° Southwest 393 452 26,000  Level Washington Center
03:44PM 36.8289 -79.4947 206° Southwest 393 452 26,000  Level Washington Center
03:45PM 36.7331 -79.5547 207° Southwest 393 452 26,000  Level Washington Center
03:46PM 36.6372 -79.6144 207° Southwest 398 458 26,000 -420 Level Washington Center
03:47PM 36.5328 -79.6789 206° Southwest 398 458 25,200 -1,200 Descending Washington Center
03:48PM 36.4433 -79.7336 206° Southwest 388 447 23,600 -1,800 Descending Washington Center
03:50PM 36.2231 -79.8667 206° Southwest 368 423 19,300 -1,800 Descending Atlanta Center
03:51PM 36.1353 -79.9200 206° Southwest 368 423 17,700 -1,680 Descending Atlanta Center
03:52PM 36.0431 -79.9711 204° Southwest 368 423 16,000 -1,680 Descending Atlanta Center
03:53PM 35.9561 -79.9883 189° South 363 418 14,400 -1,560 Descending Atlanta Center
03:54PM 35.8564 -80.0033 187° South 363 418 12,900 -1,680 Descending Atlanta Center
03:55PM 35.8067 -80.0161 192° South 341 392 12,000 -1,500 Descending Atlanta Center
03:55PM 35.7672 -80.0181 182° South 346 398 11,400 -1,620 Descending Atlanta Center
03:56PM 35.7069 -80.0314 190° South 284 327 10,100 -1,500 Descending Atlanta Center
03:56PM 35.6881 -80.0272 170° South 314 361 9,900 -1,500 Descending Atlanta Center
03:57PM 35.6344 -80.0450 195° South 255 293 8,600 -1,920 Descending Atlanta Center
03:57PM 35.6075 -80.0464 182° South 284 327 8,000 -1,860 Descending Atlanta Center
03:58PM 35.5536 -80.0567 189° South 250 288 6,600 -1,740 Descending Atlanta Center
03:58PM 35.5389 -80.0572 182° South 257 296 6,300 -540 Descending Atlanta Center
03:59PM 35.4789 -80.0681 188° South 252 290 6,000 -300 Descending Atlanta Center
03:59PM 35.4706 -80.0708 195° South 252 290 6,000 -600 Level Atlanta Center
04:00PM 35.4103 -80.0789 186° South 253 291 5,400 -720 Descending Atlanta Center
04:00PM 35.4000 -80.0819 194° South 252 290 5,300 -1,320 Descending Atlanta Center
04:01PM 35.3417 -80.0872 184° South 244 281 4,100 -1,200 Descending Atlanta Center
04:01PM 35.3419 -80.0922 274° West 252 290 4,100 -120 Level Atlanta Center
04:02PM 35.2775 -80.1006 186° South 246 283 4,000 -120 Descending Atlanta Center
04:04PM 35.1409 -80.0552 189° South  Level FlightAware Approximate
04:11PM 35.0167 -80.0667 180° South  Level FlightAware Approximate
04:12PM 35.0206 -80.0771 180° South  Level Estimated
04:13PM 35.0206 -80.0771 180° South  Level Estimated
04:14PM 35.0206 -80.0771 180° South  Level Estimated
04:15PM 35.0206 -80.0771 180° South  Level Estimated